Time;durP1;ratioP1;P1;durP2;ratioP2;P2;SDS_P1;SDS_P2;PMS_P1;PMS_P2;Temp;Humidity;BMP_temperature;BMP_pressure;BME280_temperature;BME280_humidity;BME280_pressure;Samples;Min_cycle;Max_cycle;Signal;HPM_P1;HPM_P2
2021/08/05 00:05:12;;;;;;;3.33;2.83;;;13.40;99.90;;;14.02;100.00;94626.00;2348604;55;33849;-56
2021/08/05 00:07:58;;;;;;;3.85;3.25;;;13.40;99.90;;;13.82;100.00;94635.00;2121332;57;26135;-57
2021/08/05 00:10:45;;;;;;;3.45;3.00;;;13.30;99.90;;;13.80;100.00;94648.00;2354000;56;26864;-56
2021/08/05 00:13:32;;;;;;;5.40;2.93;;;13.30;99.90;;;13.69;100.00;94645.00;2145287;57;26851;-56
2021/08/05 00:16:18;;;;;;;2.80;2.53;;;13.30;99.90;;;13.74;100.00;94645.00;2370426;56;26912;-56
2021/08/05 00:22:00;;;;;;;3.50;2.53;;;13.30;99.90;;;13.83;100.00;94624.00;2425238;54;34335;-57
2021/08/05 00:24:46;;;;;;;3.03;2.73;;;13.30;99.90;;;13.77;100.00;94643.00;2200764;55;26811;-57
2021/08/05 00:27:33;;;;;;;2.93;2.63;;;13.30;99.90;;;13.78;100.00;94647.00;2425607;55;26661;-59
2021/08/05 00:30:19;;;;;;;4.60;2.67;;;13.30;99.90;;;13.76;100.00;94642.00;2207026;55;26647;-55
2021/08/05 00:33:05;;;;;;;3.83;3.07;;;13.30;99.90;;;13.68;100.00;94644.00;2426379;55;26977;-56
2021/08/05 00:35:51;;;;;;;3.63;2.90;;;13.30;99.90;;;13.78;100.00;94653.00;2422068;55;26554;-56
2021/08/05 00:38:38;;;;;;;3.77;2.70;;;13.30;99.90;;;13.80;100.00;94642.00;2199651;55;26646;-55
2021/08/05 00:41:24;;;;;;;3.40;2.80;;;13.30;99.90;;;13.72;100.00;94648.00;2420948;55;26829;-56
2021/08/05 00:44:10;;;;;;;2.70;2.50;;;13.30;99.90;;;13.73;100.00;94641.00;2201898;55;27201;-55
2021/08/05 00:49:53;;;;;;;2.30;2.10;;;13.30;99.90;;;13.87;100.00;94620.00;2421149;54;33438;-56
2021/08/05 00:52:39;;;;;;;2.40;2.17;;;13.30;99.90;;;13.68;100.00;94636.00;2200708;56;26704;-56
2021/08/05 00:55:26;;;;;;;2.10;1.90;;;13.30;99.90;;;13.71;100.00;94634.00;2203846;56;26791;-56
2021/08/05 00:58:12;;;;;;;2.47;2.25;;;13.30;99.90;;;13.74;100.00;94630.00;2426121;55;27315;-56
2021/08/05 01:01:08;;;;;;;2.78;2.50;;;13.20;99.90;;;13.58;100.00;94636.00;2204877;55;27346;-56
2021/08/05 01:03:57;;;;;;;2.92;2.33;;;13.10;99.90;;;13.46;100.00;94622.00;2425829;55;27237;-55
2021/08/05 01:06:56;;;;;;;4.45;2.25;;;13.10;99.90;;;13.51;100.00;94627.00;2205753;55;26659;-55
2021/08/05 01:09:56;;;;;;;2.50;2.30;;;13.10;99.90;;;13.53;100.00;94630.00;2205857;55;26946;-56
2021/08/05 01:12:49;;;;;;;4.03;2.20;;;13.10;99.90;;;13.52;100.00;94624.00;2206192;56;26710;-56
2021/08/05 01:15:36;;;;;;;2.97;2.30;;;13.10;99.90;;;13.53;100.00;94617.00;2204271;55;26664;-56
2021/08/05 01:21:39;;;;;;;2.67;2.47;;;13.10;99.90;;;13.67;100.00;94609.00;2448786;53;34135;-56
2021/08/05 01:24:26;;;;;;;2.67;2.47;;;13.10;99.90;;;13.50;100.00;94625.00;2400138;55;27192;-57
2021/08/05 01:30:12;;;;;;;2.03;1.87;;;13.00;99.90;;;13.62;100.00;94605.00;2437123;54;33874;-56
2021/08/05 01:32:59;;;;;;;2.25;2.05;;;13.10;99.90;;;13.57;100.00;94632.00;2193430;56;26640;-56
2021/08/05 01:35:48;;;;;;;2.20;2.00;;;13.10;99.90;;;13.61;100.00;94623.00;2183553;55;26671;-56
2021/08/05 01:38:37;;;;;;;2.00;1.80;;;13.10;99.90;;;13.60;100.00;94631.00;2383760;55;27290;-56
2021/08/05 01:44:23;;;;;;;2.70;2.50;;;13.10;99.90;;;13.70;100.00;94600.00;2380181;55;35242;-57
2021/08/05 01:50:11;;;;;;;6.00;2.45;;;13.10;99.90;;;13.65;100.00;94591.00;2353578;56;33736;-56
2021/08/05 01:52:58;;;;;;;3.45;3.15;;;13.10;99.90;;;13.49;100.00;94619.00;2134802;58;26825;-56
2021/08/05 01:55:45;;;;;;;3.40;3.05;;;13.00;99.90;;;13.35;100.00;94615.00;2342728;57;26659;-57
2021/08/05 01:58:31;;;;;;;3.27;2.97;;;13.00;99.90;;;13.37;100.00;94615.00;2136030;58;26729;-55
2021/08/05 02:04:32;;;;;;;4.15;3.00;;;12.90;99.90;;;13.35;100.00;94594.00;2352231;56;33967;-57
2021/08/05 02:07:26;;;;;;;4.23;3.37;;;12.90;99.90;;;13.22;100.00;94607.00;2342758;58;26638;-56
2021/08/05 02:10:18;;;;;;;6.03;3.25;;;12.90;99.90;;;13.27;100.00;94610.00;2134818;57;26925;-55
2021/08/05 02:16:08;;;;;;;3.00;2.73;;;13.00;99.90;;;13.65;100.00;94597.00;2466286;54;33029;-55
2021/08/05 02:18:55;;;;;;;4.45;3.10;;;13.10;99.90;;;13.55;100.00;94610.00;2220838;55;26590;-56
2021/08/05 02:21:44;;;;;;;3.30;2.90;;;13.10;99.90;;;13.53;100.00;94610.00;2219825;55;27438;-56
2021/08/05 02:27:27;;;;;;;3.20;2.90;;;13.10;99.90;;;13.75;100.00;94592.00;2498486;52;33604;-56
2021/08/05 02:30:15;;;;;;;2.80;2.60;;;13.20;99.90;;;13.61;100.00;94607.00;2471046;53;27000;-55
2021/08/05 02:33:02;;;;;;;2.72;2.53;;;13.20;99.90;;;13.63;100.00;94615.00;2192201;54;27295;-57
2021/08/05 02:35:49;;;;;;;3.92;2.80;;;13.20;99.90;;;13.69;100.00;94608.00;2193005;54;26708;-57
2021/08/05 02:38:35;;;;;;;2.80;2.60;;;13.20;99.90;;;13.67;100.00;94608.00;2191743;54;26799;-56
2021/08/05 02:41:23;;;;;;;2.80;2.60;;;13.20;99.90;;;13.68;100.00;94604.00;2197901;54;27308;-57
2021/08/05 02:44:09;;;;;;;4.93;2.60;;;13.20;99.90;;;13.70;100.00;94606.00;2193800;55;26833;-57
2021/08/05 02:46:58;;;;;;;3.08;2.53;;;13.20;99.90;;;13.62;100.00;94603.00;2204289;55;27035;-57
2021/08/05 02:49:46;;;;;;;2.63;2.37;;;13.20;99.90;;;13.61;100.00;94603.00;2240015;55;26558;-56
2021/08/05 02:52:33;;;;;;;2.60;2.37;;;13.20;99.90;;;13.62;100.00;94600.00;2238751;55;26137;-57
2021/08/05 02:55:19;;;;;;;2.75;2.42;;;13.20;99.90;;;13.60;100.00;94610.00;2468377;54;26152;-57
2021/08/05 03:01:04;;;;;;;3.55;2.25;;;13.20;99.90;;;13.77;100.00;94577.00;2378396;55;34592;-59
2021/08/05 03:03:54;;;;;;;2.17;1.97;;;13.20;99.90;;;13.67;100.00;94608.00;2135875;57;27514;-57
2021/08/05 03:06:42;;;;;;;3.97;2.22;;;13.20;99.90;;;13.60;100.00;94607.00;2351846;55;26853;-56
2021/08/05 03:09:29;;;;;;;2.10;1.75;;;13.10;99.90;;;13.57;100.00;94606.00;2380065;55;25928;-57
2021/08/05 03:12:15;;;;;;;2.70;1.65;;;13.10;99.90;;;13.53;100.00;94598.00;2186932;56;26708;-57
2021/08/05 03:15:02;;;;;;;1.60;1.50;;;13.10;99.90;;;13.58;100.00;94605.00;2406478;55;26163;-57
2021/08/05 03:20:45;;;;;;;2.05;1.85;;;13.20;99.90;;;13.78;100.00;94597.00;2421197;54;33648;-60
2021/08/05 03:23:31;;;;;;;1.95;1.50;;;13.20;99.90;;;13.60;100.00;94610.00;2175980;55;26655;-57
2021/08/05 03:26:17;;;;;;;2.90;1.40;;;13.20;99.90;;;13.62;100.00;94611.00;2147704;56;27173;-56
2021/08/05 03:32:02;;;;;;;1.83;1.33;;;13.10;99.90;;;13.70;100.00;94587.00;2381690;55;34806;-56
2021/08/05 03:34:48;;;;;;;1.40;1.30;;;13.10;99.90;;;13.57;100.00;94605.00;2152352;57;26736;-57
2021/08/05 03:37:34;;;;;;;3.12;1.50;;;13.10;99.90;;;13.62;100.00;94608.00;2134457;56;26723;-57
2021/08/05 03:43:18;;;;;;;1.60;1.15;;;13.10;99.90;;;13.70;100.00;94592.00;2439442;54;33590;-57
2021/08/05 03:46:04;;;;;;;1.52;1.30;;;13.20;99.90;;;13.60;100.00;94610.00;2202773;55;26604;-57
2021/08/05 03:48:50;;;;;;;1.35;1.05;;;13.20;99.90;;;13.70;100.00;94615.00;2191625;54;27597;-58
2021/08/05 03:51:37;;;;;;;2.80;1.15;;;13.10;99.90;;;13.57;100.00;94613.00;2423351;54;26689;-56
2021/08/05 03:54:23;;;;;;;1.27;1.00;;;13.10;99.90;;;13.59;100.00;94616.00;2192859;55;26773;-57
2021/08/05 03:57:09;;;;;;;2.05;0.90;;;13.10;99.90;;;13.59;100.00;94613.00;2414573;55;26928;-56
2021/08/05 03:59:56;;;;;;;0.77;0.77;;;13.10;99.90;;;13.62;100.00;94614.00;2196857;55;26794;-57
2021/08/05 04:02:43;;;;;;;1.87;0.70;;;13.10;99.90;;;13.60;100.00;94617.00;2442971;54;26954;-56
2021/08/05 04:05:30;;;;;;;1.20;1.00;;;13.00;99.90;;;13.52;100.00;94615.00;2221338;55;27172;-57
2021/08/05 04:08:16;;;;;;;1.67;1.13;;;13.00;99.90;;;13.42;100.00;94608.00;2221866;55;26736;-57
2021/08/05 04:11:03;;;;;;;1.45;1.00;;;13.00;99.90;;;13.48;100.00;94612.00;2427000;55;26694;-56
2021/08/05 04:13:50;;;;;;;2.42;1.17;;;12.90;99.90;;;13.52;100.00;94615.00;2414195;55;26880;-57
2021/08/05 04:16:36;;;;;;;1.23;1.10;;;13.00;99.90;;;13.42;100.00;94608.00;2413050;55;27064;-57
2021/08/05 04:19:26;;;;;;;2.35;1.33;;;13.00;99.90;;;13.41;100.00;94612.00;2221579;55;26603;-57
2021/08/05 04:22:12;;;;;;;1.55;1.23;;;13.00;99.90;;;13.42;100.00;94608.00;2507483;53;26110;-57
2021/08/05 04:24:59;;;;;;;1.77;1.20;;;13.00;99.90;;;13.43;100.00;94615.00;2272536;53;27178;-57
2021/08/05 04:30:41;;;;;;;1.77;1.25;;;12.90;99.90;;;13.52;100.00;94597.00;2353012;56;34286;-57
2021/08/05 04:33:27;;;;;;;2.20;1.30;;;12.90;99.90;;;13.34;100.00;94603.00;2155687;57;26761;-57
2021/08/05 04:36:14;;;;;;;1.42;1.33;;;12.90;99.90;;;13.35;100.00;94617.00;2160804;56;26931;-57
2021/08/05 04:39:01;;;;;;;2.80;1.67;;;12.90;99.90;;;13.31;100.00;94613.00;2388610;56;26938;-57
2021/08/05 04:41:47;;;;;;;2.90;1.60;;;12.90;99.90;;;13.38;100.00;94610.00;2162104;56;26725;-56
2021/08/05 04:47:29;;;;;;;2.62;1.58;;;13.00;99.90;;;13.52;100.00;94594.00;2334863;56;34082;-57
2021/08/05 04:53:16;;;;;;;2.25;1.40;;;13.00;99.90;;;13.64;100.00;94591.00;2402296;55;34474;-57
2021/08/05 05:01:56;;;;;;;1.58;1.40;;;13.10;99.90;;;13.84;100.00;94591.00;2410150;55;34415;-56
2021/08/05 05:04:42;;;;;;;1.80;1.50;;;13.20;99.90;;;13.75;100.00;94608.00;2178271;57;27756;-57
2021/08/05 05:07:29;;;;;;;1.73;1.42;;;13.10;99.90;;;13.63;100.00;94610.00;2391303;55;26643;-57
2021/08/05 05:10:16;;;;;;;4.33;1.73;;;13.10;99.90;;;13.63;100.00;94610.00;2174848;56;27277;-58
2021/08/05 05:13:03;;;;;;;1.77;1.60;;;13.10;99.90;;;13.51;100.00;94604.00;2400256;55;27475;-56
2021/08/05 05:15:49;;;;;;;2.97;1.80;;;13.00;99.90;;;13.46;100.00;94610.00;2190651;56;26146;-56
2021/08/05 05:18:35;;;;;;;2.10;1.67;;;13.10;99.90;;;13.57;100.00;94606.00;2429962;55;26804;-57
2021/08/05 05:21:22;;;;;;;2.03;1.83;;;13.00;99.90;;;13.44;100.00;94612.00;2221094;55;26584;-57
2021/08/05 05:24:08;;;;;;;4.12;1.83;;;13.00;99.90;;;13.46;100.00;94615.00;2222296;55;26655;-56
2021/08/05 05:26:55;;;;;;;3.10;2.13;;;13.00;99.90;;;13.41;100.00;94609.00;2446011;55;26065;-56
2021/08/05 05:29:41;;;;;;;3.60;2.00;;;13.00;99.90;;;13.47;100.00;94610.00;2214541;55;26664;-57
2021/08/05 05:32:28;;;;;;;2.53;1.90;;;13.10;99.90;;;13.45;100.00;94618.00;2195558;56;26623;-55
2021/08/05 05:35:17;;;;;;;4.13;2.20;;;13.00;99.90;;;13.33;100.00;94617.00;2198107;56;27620;-55
2021/08/05 05:38:05;;;;;;;4.07;2.10;;;13.00;99.90;;;13.35;100.00;94618.00;2196731;56;26662;-56
2021/08/05 05:40:52;;;;;;;2.50;1.67;;;13.00;99.90;;;13.36;100.00;94621.00;2193743;56;26681;-56
2021/08/05 05:46:35;;;;;;;1.70;1.57;;;13.00;99.90;;;13.42;100.00;94608.00;2471174;54;34211;-56
2021/08/05 05:49:22;;;;;;;2.57;1.90;;;12.90;99.90;;;13.22;100.00;94630.00;2195542;56;26733;-55
2021/08/05 05:52:09;;;;;;;4.27;2.03;;;12.80;99.90;;;13.19;100.00;94629.00;2154093;56;26096;-56
2021/08/05 05:54:56;;;;;;;2.70;2.00;;;12.80;99.90;;;13.09;100.00;94634.00;2351652;56;26808;-56
2021/08/05 05:57:42;;;;;;;3.13;2.53;;;12.80;99.90;;;13.14;100.00;94631.00;2143831;56;26794;-56
2021/08/05 06:00:29;;;;;;;2.97;2.00;;;12.80;99.90;;;13.13;100.00;94638.00;2351112;56;26723;-56
2021/08/05 06:03:17;;;;;;;2.27;1.90;;;12.80;99.90;;;13.11;100.00;94644.00;2141230;56;26132;-55
2021/08/05 06:06:03;;;;;;;2.30;2.00;;;12.70;99.90;;;13.04;100.00;94649.00;2349824;56;27441;-54
2021/08/05 06:08:51;;;;;;;2.40;1.90;;;12.60;99.90;;;12.90;100.00;94651.00;2142496;56;27273;-56
2021/08/05 06:11:37;;;;;;;2.60;2.20;;;12.60;99.90;;;12.93;100.00;94651.00;2142631;56;27355;-55
2021/08/05 06:17:20;;;;;;;3.57;2.10;;;12.60;99.90;;;12.96;100.00;94633.00;2371507;55;33783;-56
2021/08/05 06:23:08;;;;;;;3.17;1.83;;;12.60;99.90;;;13.04;100.00;94641.00;2413105;54;33895;-56
2021/08/05 06:25:55;;;;;;;3.37;2.10;;;12.60;99.90;;;12.92;100.00;94662.00;2412915;54;26684;-56
2021/08/05 06:28:41;;;;;;;2.10;1.90;;;12.60;99.90;;;13.04;100.00;94662.00;2164876;56;26757;-57
2021/08/05 06:31:28;;;;;;;2.60;2.20;;;12.60;99.90;;;12.95;100.00;94664.00;2385055;55;26787;-56
2021/08/05 06:34:14;;;;;;;2.10;1.87;;;12.70;99.90;;;13.05;100.00;94664.00;2193826;55;26686;-57
2021/08/05 06:37:01;;;;;;;2.50;2.10;;;12.70;99.90;;;13.10;100.00;94666.00;2193278;56;26195;-57
2021/08/05 06:42:44;;;;;;;4.13;2.17;;;12.80;99.90;;;13.26;100.00;94647.00;2395617;55;34319;-57
2021/08/05 06:45:30;;;;;;;2.87;1.93;;;12.90;99.90;;;13.26;100.00;94667.00;2181184;56;27675;-57
2021/08/05 06:51:14;;;;;;;3.00;1.87;;;12.80;99.90;;;13.26;100.00;94643.00;2410616;55;34164;-57
2021/08/05 06:54:01;;;;;;;4.77;2.17;;;12.90;99.90;;;13.24;100.00;94673.00;2404904;55;26543;-56
2021/08/05 06:59:43;;;;;;;3.53;2.30;;;12.90;99.90;;;13.45;100.00;94641.00;2423809;55;33189;-56
2021/08/05 07:02:31;;;;;;;2.37;2.13;;;13.00;99.90;;;13.39;100.00;94671.00;2395522;56;26731;-55
2021/08/05 07:05:17;;;;;;;4.10;2.10;;;12.90;99.90;;;13.28;100.00;94672.00;2174787;56;26593;-56
2021/08/05 07:08:05;;;;;;;2.25;1.95;;;13.00;99.90;;;13.33;100.00;94670.00;2397810;56;27667;-56
2021/08/05 07:10:51;;;;;;;2.92;1.90;;;13.00;99.90;;;13.35;100.00;94665.00;2153518;57;26190;-55
2021/08/05 07:13:37;;;;;;;2.53;1.90;;;13.00;99.90;;;13.37;100.00;94669.00;2379272;56;26607;-56
2021/08/05 07:19:22;;;;;;;2.30;1.90;;;13.00;99.90;;;13.28;100.00;94636.00;2380444;55;33288;-56
2021/08/05 07:22:08;;;;;;;2.40;2.17;;;13.00;99.90;;;13.36;100.00;94662.00;2185678;55;26752;-57
2021/08/05 07:24:55;;;;;;;2.43;2.23;;;12.90;99.90;;;13.27;100.00;94668.00;2428543;55;27007;-56
2021/08/05 07:27:44;;;;;;;3.23;2.20;;;13.00;99.90;;;13.45;100.00;94668.00;2195127;55;26765;-56
2021/08/05 07:30:31;;;;;;;2.80;2.30;;;13.10;99.90;;;13.55;100.00;94662.00;2430776;55;26771;-55
2021/08/05 07:33:18;;;;;;;2.70;2.30;;;13.10;99.90;;;13.48;100.00;94658.00;2207486;55;26620;-56
2021/08/05 07:36:05;;;;;;;3.05;2.25;;;13.10;99.90;;;13.53;100.00;94673.00;2417094;55;27390;-56
2021/08/05 07:41:47;;;;;;;2.13;1.93;;;13.20;99.90;;;13.77;100.00;94640.00;2490363;52;33576;-56
2021/08/05 07:44:34;;;;;;;2.03;1.90;;;13.30;99.90;;;13.68;100.00;94666.00;2262022;55;26217;-56
2021/08/05 07:47:20;;;;;;;3.25;2.10;;;13.20;99.90;;;13.60;100.00;94661.00;2256023;55;26886;-56
2021/08/05 07:53:06;;;;;;;2.05;1.60;;;13.30;99.90;;;13.81;100.00;94637.00;2385140;55;33244;-55
2021/08/05 07:58:50;;;;;;;2.10;1.40;;;13.20;99.90;;;13.66;100.00;94640.00;2441213;54;34039;-56
2021/08/05 08:01:36;;;;;;;2.37;1.43;;;13.10;99.90;;;13.50;100.00;94671.00;2152583;56;27347;-56
2021/08/05 08:04:23;;;;;;;2.03;1.50;;;13.10;99.90;;;13.57;100.00;94666.00;2405762;55;27234;-56
2021/08/05 08:07:09;;;;;;;2.22;1.48;;;13.20;99.90;;;13.71;100.00;94672.00;2179431;56;27248;-56
2021/08/05 08:09:55;;;;;;;1.87;1.67;;;13.30;99.90;;;13.86;100.00;94673.00;2185824;56;26759;-56
2021/08/05 08:12:42;;;;;;;1.47;1.37;;;13.40;99.90;;;14.03;100.00;94664.00;2403195;55;26792;-56
2021/08/05 08:15:29;;;;;;;2.42;1.52;;;13.50;99.90;;;14.15;100.00;94669.00;2179078;55;26791;-56
2021/08/05 08:18:16;;;;;;;1.85;1.60;;;13.60;99.90;;;14.18;100.00;94669.00;2182912;55;26675;-56
2021/08/05 08:21:02;;;;;;;1.35;1.23;;;13.70;99.90;;;14.22;100.00;94671.00;2189418;55;26800;-56
2021/08/05 08:23:49;;;;;;;1.65;1.55;;;13.80;99.90;;;14.32;100.00;94668.00;2181231;55;27472;-57
2021/08/05 08:26:36;;;;;;;2.20;1.80;;;14.00;99.90;;;14.52;100.00;94667.00;2180528;55;26984;-55
2021/08/05 08:29:22;;;;;;;2.00;1.80;;;14.10;99.90;;;14.70;100.00;94666.00;2187191;55;27332;-55
2021/08/05 08:35:10;;;;;;;2.17;1.92;;;14.70;99.90;;;15.62;100.00;94648.00;2414373;55;34254;-56
2021/08/05 08:37:56;;;;;;;1.62;1.52;;;14.90;99.90;;;15.57;100.00;94655.00;2165022;56;26244;-56
2021/08/05 08:40:42;;;;;;;1.70;1.60;;;14.80;99.90;;;15.21;100.00;94647.00;2351956;57;27300;-56
2021/08/05 08:43:30;;;;;;;2.17;1.90;;;14.70;99.90;;;15.18;100.00;94656.00;2147974;57;26743;-55
2021/08/05 08:46:20;;;;;;;1.92;1.80;;;14.50;99.90;;;15.02;100.00;94649.00;2353737;56;26651;-56
2021/08/05 08:49:07;;;;;;;1.92;1.73;;;14.50;99.90;;;14.89;100.00;94662.00;2155788;56;26747;-55
2021/08/05 08:51:57;;;;;;;2.20;1.80;;;14.40;99.90;;;14.81;100.00;94660.00;2165849;56;26555;-56
2021/08/05 08:54:45;;;;;;;2.30;2.00;;;14.40;99.90;;;14.92;100.00;94664.00;2166118;55;26697;-56
2021/08/05 08:57:35;;;;;;;2.05;1.58;;;14.40;99.90;;;14.94;100.00;94660.00;2188432;56;26273;-56
2021/08/05 09:00:21;;;;;;;2.65;1.60;;;14.40;99.90;;;14.88;100.00;94656.00;2406982;55;26673;-56
2021/08/05 09:06:06;;;;;;;2.15;1.90;;;14.40;99.90;;;15.10;100.00;94646.00;2414967;54;34464;-56
2021/08/05 09:08:52;;;;;;;1.80;1.70;;;14.40;99.90;;;14.88;100.00;94655.00;2172184;56;26946;-56
2021/08/05 09:11:38;;;;;;;1.95;1.62;;;14.60;99.90;;;15.28;100.00;94651.00;2400647;55;26630;-56
2021/08/05 09:14:50;;;;;;;5.70;1.87;;;14.70;99.90;;;15.25;100.00;94649.00;2399740;55;26601;-56
2021/08/05 09:17:42;;;;;;;3.20;2.17;;;15.10;99.90;;;15.72;100.00;94650.00;2179666;56;27045;-55
2021/08/05 09:20:29;;;;;;;4.25;1.70;;;15.50;99.90;;;16.34;100.00;94643.00;2427715;55;27123;-56
2021/08/05 09:23:15;;;;;;;1.48;1.35;;;15.90;99.90;;;16.68;100.00;94635.00;2171555;56;26857;-56
2021/08/05 09:26:02;;;;;;;1.67;1.58;;;16.30;99.90;;;17.20;100.00;94623.00;2139836;56;26777;-56
2021/08/05 09:29:05;;;;;;;1.75;1.52;;;16.80;99.90;;;17.84;100.00;94625.00;2363739;56;26781;-56
2021/08/05 09:32:03;;;;;;;3.45;1.73;;;16.90;99.90;;;17.49;100.00;94611.00;2349379;56;27343;-55
2021/08/05 09:34:50;;;;;;;1.50;1.40;;;16.90;99.90;;;17.63;100.00;94617.00;2346499;56;26712;-55
2021/08/05 09:37:37;;;;;;;2.00;1.73;;;17.00;99.90;;;17.67;100.00;94613.00;2163853;56;27014;-56
2021/08/05 09:40:31;;;;;;;2.03;1.83;;;16.80;99.90;;;17.43;100.00;94609.00;2162851;56;27210;-55
2021/08/05 09:43:27;;;;;;;2.47;2.00;;;17.00;99.90;;;17.57;100.00;94608.00;2163426;56;26663;-56
2021/08/05 09:46:13;;;;;;;2.00;1.80;;;16.80;99.90;;;17.13;100.00;94601.00;2374644;56;26734;-56
2021/08/05 09:51:58;;;;;;;3.10;2.30;;;17.40;99.90;;;18.52;100.00;94595.00;2487506;52;33757;-56
2021/08/05 09:54:48;;;;;;;1.90;1.70;;;17.30;99.90;;;18.03;100.00;94600.00;2231087;54;26723;-56
2021/08/05 09:57:37;;;;;;;3.67;1.77;;;17.50;99.90;;;18.32;100.00;94596.00;2457722;54;26807;-56
2021/08/05 10:00:23;;;;;;;2.45;1.80;;;17.80;99.90;;;18.85;100.00;94599.00;2227861;55;26892;-55
2021/08/05 10:03:10;;;;;;;2.08;1.80;;;17.90;99.90;;;18.80;100.00;94608.00;2226551;54;26990;-55
2021/08/05 10:05:59;;;;;;;2.60;1.95;;;18.00;99.90;;;18.77;100.00;94607.00;2225899;54;26765;-56
2021/08/05 10:08:45;;;;;;;2.50;1.73;;;17.80;99.90;;;18.32;100.00;94607.00;2229271;55;26781;-56
2021/08/05 10:11:38;;;;;;;2.25;1.77;;;17.60;99.90;;;18.16;100.00;94602.00;2228731;55;26750;-55
2021/08/05 10:14:27;;;;;;;2.47;1.67;;;17.80;99.90;;;18.64;100.00;94594.00;2226882;55;26681;-56
2021/08/05 10:17:15;;;;;;;2.78;2.20;;;18.00;99.90;;;18.78;100.00;94586.00;2466946;55;27314;-56
2021/08/05 10:20:02;;;;;;;3.28;2.80;;;18.50;99.90;;;19.70;100.00;94582.00;2238218;54;26724;-57
2021/08/05 10:22:51;;;;;;;3.12;2.62;;;19.10;99.90;;;20.15;100.00;94583.00;2465469;54;26785;-56
2021/08/05 10:25:38;;;;;;;3.95;2.80;;;18.80;99.90;;;19.76;100.00;94578.00;2468023;54;26628;-56
2021/08/05 10:28:25;;;;;;;3.67;2.78;;;19.40;99.90;;;20.59;100.00;94576.00;2238468;54;26090;-56
2021/08/05 10:31:12;;;;;;;4.50;2.80;;;19.50;99.90;;;20.08;100.00;94585.00;2238424;54;26122;-55
2021/08/05 10:33:59;;;;;;;3.65;2.40;;;18.90;99.90;;;19.79;100.00;94579.00;2467428;54;26758;-56
2021/08/05 10:39:44;;;;;;;3.90;3.40;;;18.60;99.90;;;19.22;100.00;94575.00;2456187;54;34191;-55
2021/08/05 10:45:29;;;;;;;3.03;2.72;;;18.10;99.90;;;18.87;100.00;94569.00;2449702;54;33141;-57
2021/08/05 10:48:16;;;;;;;3.37;2.85;;;18.20;99.90;;;18.98;100.00;94574.00;2209543;55;26803;-56
2021/08/05 10:51:02;;;;;;;3.17;2.75;;;18.20;99.90;;;18.89;100.00;94570.00;2447134;55;26622;-56
2021/08/05 10:56:47;;;;;;;3.00;2.70;;;18.20;99.90;;;19.33;100.00;94556.00;2429306;54;33593;-57
2021/08/05 10:59:33;;;;;;;2.60;2.22;;;18.60;99.90;;;19.72;100.00;94564.00;2184384;55;26930;-55
2021/08/05 11:05:43;;;;;;;3.35;2.65;;;18.50;99.90;;;19.12;100.00;94556.00;2394167;55;34113;-55
2021/08/05 11:08:30;;;;;;;2.62;2.20;;;18.50;99.90;;;19.16;100.00;94549.00;2349281;57;26151;-56
2021/08/05 11:11:32;;;;;;;2.62;1.98;;;18.40;99.90;;;18.96;100.00;94565.00;2135537;57;27032;-55
2021/08/05 11:18:19;;;;;;;3.97;2.30;;;18.50;99.90;;;19.65;100.00;94545.00;2421475;54;34404;-56
2021/08/05 11:21:28;;;;;;;2.03;1.83;;;19.00;99.90;;;19.65;100.00;94545.00;2190161;55;27466;-56
2021/08/05 11:24:54;;;;;;;2.60;2.08;;;19.30;99.90;;;20.13;100.00;94540.00;2188663;55;26593;-56
2021/08/05 11:27:46;;;;;;;2.90;1.95;;;19.50;99.90;;;20.30;100.00;94531.00;2218784;55;26706;-55
2021/08/05 11:30:50;;;;;;;2.60;1.90;;;19.40;99.90;;;20.00;100.00;94535.00;2236331;55;26686;-56
2021/08/05 11:37:10;;;;;;;2.00;1.75;;;20.60;99.90;;;21.92;100.00;94527.00;2440907;55;33687;-56
2021/08/05 11:39:58;;;;;;;2.00;1.80;;;21.40;99.90;;;22.71;100.00;94522.00;2398507;56;26800;-56
2021/08/05 11:42:44;;;;;;;2.53;1.98;;;21.70;99.90;;;22.47;100.00;94518.00;2191873;55;27000;-56
2021/08/05 11:48:36;;;;;;;2.03;1.83;;;21.40;99.90;;;23.44;100.00;94504.00;2407116;55;33957;-56
2021/08/05 11:51:23;;;;;;;3.60;1.90;;;22.90;99.90;;;23.72;100.00;94493.00;2139808;58;26731;-56
2021/08/05 11:54:09;;;;;;;6.18;1.83;;;23.50;99.90;;;24.44;100.00;94503.00;2143370;58;26264;-56
2021/08/05 11:57:03;;;;;;;2.20;1.70;;;23.80;99.90;;;24.50;100.00;94494.00;2373140;56;26279;-56
2021/08/05 11:59:54;;;;;;;1.70;1.60;;;23.60;99.90;;;23.81;100.00;94492.00;2167603;58;26142;-56
2021/08/05 12:02:41;;;;;;;2.15;1.62;;;22.60;99.90;;;22.62;100.00;94497.00;2164990;57;27065;-56
2021/08/05 12:05:35;;;;;;;2.00;1.70;;;22.30;99.90;;;22.56;100.00;94500.00;2403573;56;27291;-56
2021/08/05 12:08:23;;;;;;;1.58;1.48;;;22.10;99.90;;;22.50;100.00;94498.00;2187633;56;26263;-56
2021/08/05 12:11:10;;;;;;;1.70;1.52;;;21.50;99.90;;;21.87;100.00;94491.00;2383666;56;26620;-56
2021/08/05 12:13:56;;;;;;;2.35;1.50;;;21.10;99.90;;;21.48;100.00;94494.00;2378416;56;26689;-56
2021/08/05 12:16:45;;;;;;;2.55;1.48;;;20.90;99.90;;;21.32;100.00;94484.00;2166209;56;26900;-55
2021/08/05 12:22:34;;;;;;;2.83;1.58;;;21.00;99.90;;;22.06;100.00;94476.00;2444383;53;34184;-56
2021/08/05 12:25:34;;;;;;;1.50;1.40;;;21.80;99.90;;;22.23;100.00;94475.00;2376684;55;26654;-57
2021/08/05 12:28:22;;;;;;;1.60;1.50;;;21.70;99.90;;;22.04;100.00;94471.00;2164931;55;27695;-56
2021/08/05 12:37:14;;;;;;;1.52;1.42;;;20.40;99.90;;;20.78;100.00;94464.00;2350753;55;33691;-57
2021/08/05 12:40:10;;;;;;;1.70;1.42;;;20.10;99.90;;;20.46;100.00;94470.00;2358916;56;27057;-56
2021/08/05 12:42:58;;;;;;;4.20;1.40;;;19.90;99.90;;;20.38;100.00;94470.00;2149617;56;26738;-55
2021/08/05 12:45:48;;;;;;;1.73;1.62;;;20.00;99.90;;;20.48;100.00;94467.00;2361462;56;26826;-56
2021/08/05 12:48:34;;;;;;;4.10;1.80;;;20.10;99.90;;;20.68;100.00;94462.00;2159626;56;26856;-56
2021/08/05 12:51:24;;;;;;;1.92;1.55;;;20.10;99.90;;;20.56;100.00;94460.00;2392888;56;26803;-56
2021/08/05 12:54:14;;;;;;;1.87;1.33;;;20.10;99.90;;;20.66;100.00;94459.00;2175712;58;26167;-56
2021/08/05 12:57:12;;;;;;;1.92;1.42;;;20.10;99.90;;;20.55;100.00;94473.00;2393228;56;26709;-56
2021/08/05 12:59:58;;;;;;;1.92;1.40;;;20.10;99.90;;;20.49;100.00;94470.00;2179251;56;26162;-56
2021/08/05 13:05:56;;;;;;;1.55;1.30;;;20.10;99.90;;;20.67;100.00;94461.00;2456161;53;33433;-55
2021/08/05 13:08:45;;;;;;;1.98;1.60;;;20.70;99.90;;;21.12;100.00;94457.00;2424196;55;26847;-56
2021/08/05 13:11:40;;;;;;;1.87;1.40;;;21.50;99.90;;;22.03;100.00;94462.00;2219224;55;26777;-56
2021/08/05 13:17:36;;;;;;;1.50;1.40;;;22.00;99.90;;;22.32;100.00;94449.00;2358916;56;33889;-56
2021/08/05 13:20:22;;;;;;;2.65;1.70;;;21.90;99.90;;;21.96;100.00;94460.00;2344374;57;27386;-56
2021/08/05 13:23:27;;;;;;;2.00;1.80;;;21.40;99.90;;;21.44;100.00;94453.00;2146691;56;26785;-56
2021/08/05 13:26:32;;;;;;;1.95;1.62;;;21.30;99.90;;;21.27;100.00;94449.00;2362584;56;27095;-56
2021/08/05 13:29:43;;;;;;;1.83;1.50;;;21.50;99.90;;;21.53;100.00;94448.00;2372352;56;26149;-56
2021/08/05 13:32:30;;;;;;;1.80;1.55;;;21.30;99.90;;;21.42;100.00;94444.00;2166273;56;26642;-57
2021/08/05 13:35:19;;;;;;;2.05;1.60;;;21.40;99.90;;;21.63;100.00;94446.00;2165375;56;26756;-57
2021/08/05 13:38:06;;;;;;;1.60;1.40;;;21.30;99.90;;;21.61;100.00;94440.00;2375600;56;26748;-56
2021/08/05 13:40:57;;;;;;;1.60;1.40;;;21.60;99.90;;;21.99;100.00;94433.00;2160457;56;27113;-56
2021/08/05 13:43:43;;;;;;;1.73;1.42;;;21.70;99.90;;;21.78;100.00;94428.00;2163044;57;27179;-57
2021/08/05 13:46:30;;;;;;;2.10;1.25;;;21.60;99.90;;;21.67;100.00;94428.00;2162469;57;26897;-56
2021/08/05 13:49:16;;;;;;;1.40;1.30;;;21.80;99.90;;;21.96;100.00;94426.00;2359141;56;26743;-57
2021/08/05 13:52:04;;;;;;;1.45;1.27;;;21.70;99.90;;;22.18;100.00;94422.00;2139334;58;26666;-56
2021/08/05 13:54:50;;;;;;;1.85;1.50;;;21.60;99.90;;;21.89;100.00;94418.00;2348001;57;27264;-56